sensor_id;sensor_type;location;lat;lon;timestamp;P1;durP1;ratioP1;P2;durP2;ratioP2
50900;SDS011;36879;51.416;6.678;2023-06-10T04:53:47;13.48;;;9.85;;
50900;SDS011;36879;51.416;6.678;2023-06-10T04:56:13;18.13;;;10.10;;
50900;SDS011;36879;51.416;6.678;2023-06-10T04:58:40;13.15;;;11.50;;
50900;SDS011;36879;51.416;6.678;2023-06-10T05:01:06;14.25;;;11.73;;
50900;SDS011;36879;51.416;6.678;2023-06-10T05:03:32;14.23;;;11.07;;
50900;SDS011;36879;51.416;6.678;2023-06-10T05:05:58;17.17;;;10.50;;
50900;SDS011;36879;51.416;6.678;2023-06-10T05:08:24;15.73;;;10.52;;
50900;SDS011;36879;51.416;6.678;2023-06-10T05:10:50;12.70;;;9.77;;
50900;SDS011;36879;51.416;6.678;2023-06-10T05:13:16;15.02;;;11.18;;
50900;SDS011;36879;51.416;6.678;2023-06-10T05:15:42;17.73;;;10.82;;
50900;SDS011;36879;51.416;6.678;2023-06-10T05:18:09;12.55;;;8.63;;
50900;SDS011;36879;51.416;6.678;2023-06-10T05:20:37;12.55;;;10.48;;
50900;SDS011;36879;51.416;6.678;2023-06-10T05:23:03;13.20;;;9.30;;
50900;SDS011;36879;51.416;6.678;2023-06-10T05:25:30;11.15;;;8.88;;
50900;SDS011;36879;51.416;6.678;2023-06-10T05:27:57;14.65;;;10.80;;
50900;SDS011;36879;51.416;6.678;2023-06-10T05:30:23;12.13;;;9.57;;
50900;SDS011;36879;51.416;6.678;2023-06-10T05:32:50;15.63;;;9.50;;
50900;SDS011;36879;51.416;6.678;2023-06-10T05:35:18;14.50;;;10.13;;
50900;SDS011;36879;51.416;6.678;2023-06-10T05:37:44;12.57;;;9.75;;
50900;SDS011;36879;51.416;6.678;2023-06-10T05:40:10;12.52;;;9.05;;
50900;SDS011;36879;51.416;6.678;2023-06-10T05:42:36;10.98;;;9.00;;
50900;SDS011;36879;51.416;6.678;2023-06-10T05:45:03;11.73;;;8.45;;
50900;SDS011;36879;51.416;6.678;2023-06-10T05:47:29;13.18;;;8.73;;
50900;SDS011;36879;51.416;6.678;2023-06-10T05:49:55;12.25;;;8.98;;
50900;SDS011;36879;51.416;6.678;2023-06-10T05:52:21;11.32;;;8.40;;
50900;SDS011;36879;51.416;6.678;2023-06-10T05:54:47;11.60;;;8.70;;
50900;SDS011;36879;51.416;6.678;2023-06-10T05:57:13;11.52;;;8.77;;
50900;SDS011;36879;51.416;6.678;2023-06-10T05:59:39;17.77;;;9.05;;
50900;SDS011;36879;51.416;6.678;2023-06-10T06:02:05;12.13;;;8.82;;
50900;SDS011;36879;51.416;6.678;2023-06-10T06:04:31;13.45;;;8.18;;
50900;SDS011;36879;51.416;6.678;2023-06-10T06:06:57;11.07;;;7.78;;
50900;SDS011;36879;51.416;6.678;2023-06-10T06:09:23;10.32;;;8.18;;
50900;SDS011;36879;51.416;6.678;2023-06-10T06:11:49;13.90;;;8.15;;
50900;SDS011;36879;51.416;6.678;2023-06-10T06:14:15;11.32;;;7.93;;
50900;SDS011;36879;51.416;6.678;2023-06-10T06:16:41;10.93;;;8.52;;
50900;SDS011;36879;51.416;6.678;2023-06-10T06:19:07;10.23;;;7.68;;
50900;SDS011;36879;51.416;6.678;2023-06-10T06:21:34;9.52;;;7.57;;
50900;SDS011;36879;51.416;6.678;2023-06-10T06:24:00;11.13;;;7.55;;
50900;SDS011;36879;51.416;6.678;2023-06-10T06:26:26;10.13;;;7.10;;
50900;SDS011;36879;51.416;6.678;2023-06-10T06:28:53;9.82;;;7.25;;
50900;SDS011;36879;51.416;6.678;2023-06-10T06:31:19;9.23;;;6.68;;
50900;SDS011;36879;51.416;6.678;2023-06-10T06:33:44;10.63;;;7.53;;
50900;SDS011;36879;51.416;6.678;2023-06-10T06:36:10;8.77;;;6.25;;
50900;SDS011;36879;51.416;6.678;2023-06-10T06:38:36;9.07;;;6.85;;
50900;SDS011;36879;51.416;6.678;2023-06-10T06:41:02;9.55;;;6.68;;
50900;SDS011;36879;51.416;6.678;2023-06-10T06:43:31;10.68;;;6.85;;
50900;SDS011;36879;51.416;6.678;2023-06-10T06:45:57;12.25;;;6.93;;
50900;SDS011;36879;51.416;6.678;2023-06-10T06:48:23;10.95;;;7.15;;
50900;SDS011;36879;51.416;6.678;2023-06-10T06:50:49;7.65;;;6.35;;
50900;SDS011;36879;51.416;6.678;2023-06-10T06:53:16;10.23;;;6.82;;
50900;SDS011;36879;51.416;6.678;2023-06-10T06:55:42;8.45;;;6.32;;
50900;SDS011;36879;51.416;6.678;2023-06-10T06:58:08;8.60;;;6.03;;
50900;SDS011;36879;51.416;6.678;2023-06-10T07:00:34;8.65;;;5.95;;
50900;SDS011;36879;51.416;6.678;2023-06-10T07:02:59;8.68;;;6.55;;
50900;SDS011;36879;51.416;6.678;2023-06-10T07:05:26;13.68;;;5.68;;
50900;SDS011;36879;51.416;6.678;2023-06-10T07:07:52;10.45;;;6.20;;
50900;SDS011;36879;51.416;6.678;2023-06-10T07:10:20;9.35;;;5.40;;
50900;SDS011;36879;51.416;6.678;2023-06-10T07:12:47;10.65;;;5.80;;
50900;SDS011;36879;51.416;6.678;2023-06-10T07:15:13;8.68;;;5.07;;
50900;SDS011;36879;51.416;6.678;2023-06-10T07:17:39;6.82;;;5.10;;
50900;SDS011;36879;51.416;6.678;2023-06-10T07:20:05;9.05;;;5.15;;
50900;SDS011;36879;51.416;6.678;2023-06-10T07:22:31;8.25;;;4.93;;
50900;SDS011;36879;51.416;6.678;2023-06-10T07:24:57;6.93;;;4.85;;
50900;SDS011;36879;51.416;6.678;2023-06-10T07:27:23;9.43;;;5.25;;
50900;SDS011;36879;51.416;6.678;2023-06-10T07:29:50;12.60;;;5.25;;
50900;SDS011;36879;51.416;6.678;2023-06-10T07:32:16;7.35;;;5.45;;
50900;SDS011;36879;51.416;6.678;2023-06-10T07:34:42;9.95;;;5.28;;
50900;SDS011;36879;51.416;6.678;2023-06-10T07:37:08;6.75;;;4.75;;
50900;SDS011;36879;51.416;6.678;2023-06-10T07:39:34;8.57;;;5.43;;
50900;SDS011;36879;51.416;6.678;2023-06-10T07:42:00;9.48;;;5.43;;
50900;SDS011;36879;51.416;6.678;2023-06-10T07:44:26;20.65;;;6.15;;
50900;SDS011;36879;51.416;6.678;2023-06-10T07:46:52;13.45;;;5.72;;
50900;SDS011;36879;51.416;6.678;2023-06-10T07:49:18;8.30;;;5.32;;
50900;SDS011;36879;51.416;6.678;2023-06-10T07:51:44;6.45;;;5.78;;
50900;SDS011;36879;51.416;6.678;2023-06-10T07:54:10;8.15;;;5.20;;
50900;SDS011;36879;51.416;6.678;2023-06-10T07:56:37;9.98;;;5.32;;
50900;SDS011;36879;51.416;6.678;2023-06-10T07:59:03;11.93;;;4.88;;
50900;SDS011;36879;51.416;6.678;2023-06-10T08:01:29;7.45;;;5.15;;
50900;SDS011;36879;51.416;6.678;2023-06-10T08:03:56;8.93;;;5.93;;
50900;SDS011;36879;51.416;6.678;2023-06-10T08:06:22;5.72;;;4.53;;
50900;SDS011;36879;51.416;6.678;2023-06-10T08:08:48;7.35;;;5.00;;
50900;SDS011;36879;51.416;6.678;2023-06-10T08:11:14;6.45;;;4.93;;
50900;SDS011;36879;51.416;6.678;2023-06-10T08:13:40;14.07;;;5.35;;
50900;SDS011;36879;51.416;6.678;2023-06-10T08:16:06;9.70;;;5.63;;
50900;SDS011;36879;51.416;6.678;2023-06-10T08:18:32;8.73;;;4.80;;
50900;SDS011;36879;51.416;6.678;2023-06-10T08:20:58;7.10;;;4.95;;
50900;SDS011;36879;51.416;6.678;2023-06-10T08:23:25;8.02;;;5.00;;
50900;SDS011;36879;51.416;6.678;2023-06-10T08:25:51;9.10;;;4.57;;
50900;SDS011;36879;51.416;6.678;2023-06-10T08:28:17;7.55;;;5.03;;
50900;SDS011;36879;51.416;6.678;2023-06-10T08:30:43;10.15;;;5.45;;
50900;SDS011;36879;51.416;6.678;2023-06-10T08:33:10;6.93;;;4.53;;
50900;SDS011;36879;51.416;6.678;2023-06-10T08:35:36;8.43;;;5.05;;
50900;SDS011;36879;51.416;6.678;2023-06-10T08:38:02;8.88;;;5.20;;
50900;SDS011;36879;51.416;6.678;2023-06-10T08:40:28;8.13;;;4.45;;
50900;SDS011;36879;51.416;6.678;2023-06-10T08:43:00;6.63;;;4.65;;
50900;SDS011;36879;51.416;6.678;2023-06-10T08:45:32;7.32;;;4.72;;
50900;SDS011;36879;51.416;6.678;2023-06-10T08:48:00;7.38;;;4.75;;
50900;SDS011;36879;51.416;6.678;2023-06-10T08:50:31;8.00;;;5.47;;
50900;SDS011;36879;51.416;6.678;2023-06-10T08:52:57;7.95;;;4.63;;
50900;SDS011;36879;51.416;6.678;2023-06-10T08:55:29;10.90;;;4.78;;
50900;SDS011;36879;51.416;6.678;2023-06-10T08:57:56;17.90;;;6.05;;
50900;SDS011;36879;51.416;6.678;2023-06-10T09:00:22;11.73;;;6.15;;
50900;SDS011;36879;51.416;6.678;2023-06-10T09:02:48;11.93;;;5.30;;
50900;SDS011;36879;51.416;6.678;2023-06-10T09:05:14;34.50;;;7.55;;
50900;SDS011;36879;51.416;6.678;2023-06-10T09:07:41;15.40;;;5.45;;
50900;SDS011;36879;51.416;6.678;2023-06-10T09:10:07;8.68;;;4.80;;
50900;SDS011;36879;51.416;6.678;2023-06-10T09:12:34;7.45;;;4.80;;
50900;SDS011;36879;51.416;6.678;2023-06-10T09:15:00;9.90;;;4.30;;
50900;SDS011;36879;51.416;6.678;2023-06-10T09:17:27;34.90;;;7.57;;
50900;SDS011;36879;51.416;6.678;2023-06-10T09:19:53;11.75;;;4.88;;
50900;SDS011;36879;51.416;6.678;2023-06-10T09:22:21;11.65;;;5.88;;
50900;SDS011;36879;51.416;6.678;2023-06-10T09:24:47;8.13;;;5.32;;
50900;SDS011;36879;51.416;6.678;2023-06-10T09:27:13;10.20;;;4.85;;
50900;SDS011;36879;51.416;6.678;2023-06-10T09:32:12;11.00;;;5.05;;
50900;SDS011;36879;51.416;6.678;2023-06-10T09:34:38;9.52;;;5.43;;
50900;SDS011;36879;51.416;6.678;2023-06-10T09:37:06;8.88;;;5.38;;
50900;SDS011;36879;51.416;6.678;2023-06-10T09:39:33;14.82;;;5.70;;
50900;SDS011;36879;51.416;6.678;2023-06-10T09:41:59;13.10;;;4.75;;
50900;SDS011;36879;51.416;6.678;2023-06-10T09:44:25;29.20;;;6.80;;
50900;SDS011;36879;51.416;6.678;2023-06-10T09:46:52;10.32;;;4.57;;
50900;SDS011;36879;51.416;6.678;2023-06-10T09:49:19;8.27;;;5.05;;
50900;SDS011;36879;51.416;6.678;2023-06-10T09:51:52;7.90;;;5.57;;
50900;SDS011;36879;51.416;6.678;2023-06-10T09:54:18;7.50;;;4.88;;
50900;SDS011;36879;51.416;6.678;2023-06-10T09:56:51;16.73;;;5.80;;
50900;SDS011;36879;51.416;6.678;2023-06-10T09:59:27;6.80;;;5.00;;
50900;SDS011;36879;51.416;6.678;2023-06-10T10:01:55;7.72;;;4.47;;
50900;SDS011;36879;51.416;6.678;2023-06-10T10:04:24;10.80;;;5.70;;
50900;SDS011;36879;51.416;6.678;2023-06-10T10:06:50;7.88;;;5.15;;
50900;SDS011;36879;51.416;6.678;2023-06-10T10:09:16;8.07;;;5.38;;
50900;SDS011;36879;51.416;6.678;2023-06-10T10:11:43;7.80;;;5.15;;
50900;SDS011;36879;51.416;6.678;2023-06-10T10:14:09;8.85;;;5.00;;
50900;SDS011;36879;51.416;6.678;2023-06-10T10:16:36;7.22;;;4.93;;
50900;SDS011;36879;51.416;6.678;2023-06-10T10:19:13;10.43;;;6.68;;
50900;SDS011;36879;51.416;6.678;2023-06-10T10:21:43;9.32;;;5.60;;
50900;SDS011;36879;51.416;6.678;2023-06-10T10:24:11;7.93;;;5.40;;
50900;SDS011;36879;51.416;6.678;2023-06-10T10:26:38;8.93;;;4.90;;
50900;SDS011;36879;51.416;6.678;2023-06-10T10:29:11;6.35;;;4.72;;
50900;SDS011;36879;51.416;6.678;2023-06-10T10:31:40;6.57;;;4.78;;
50900;SDS011;36879;51.416;6.678;2023-06-10T10:34:10;6.93;;;4.68;;
50900;SDS011;36879;51.416;6.678;2023-06-10T10:36:38;8.98;;;5.20;;
50900;SDS011;36879;51.416;6.678;2023-06-10T10:39:04;7.82;;;5.45;;
50900;SDS011;36879;51.416;6.678;2023-06-10T10:41:31;6.22;;;4.82;;
50900;SDS011;36879;51.416;6.678;2023-06-10T10:43:57;6.78;;;4.63;;
50900;SDS011;36879;51.416;6.678;2023-06-10T10:46:24;8.75;;;4.63;;
50900;SDS011;36879;51.416;6.678;2023-06-10T10:48:53;7.15;;;4.65;;
50900;SDS011;36879;51.416;6.678;2023-06-10T10:51:20;8.95;;;5.60;;
50900;SDS011;36879;51.416;6.678;2023-06-10T10:56:32;8.98;;;5.65;;
50900;SDS011;36879;51.416;6.678;2023-06-10T10:59:05;11.00;;;4.88;;
50900;SDS011;36879;51.416;6.678;2023-06-10T11:01:41;6.35;;;4.05;;
50900;SDS011;36879;51.416;6.678;2023-06-10T11:04:09;8.93;;;4.88;;
50900;SDS011;36879;51.416;6.678;2023-06-10T11:06:35;6.72;;;4.60;;
50900;SDS011;36879;51.416;6.678;2023-06-10T11:09:02;8.90;;;5.03;;
50900;SDS011;36879;51.416;6.678;2023-06-10T11:11:51;6.93;;;4.78;;
50900;SDS011;36879;51.416;6.678;2023-06-10T11:14:25;7.70;;;4.85;;
50900;SDS011;36879;51.416;6.678;2023-06-10T11:16:53;7.20;;;4.57;;
50900;SDS011;36879;51.416;6.678;2023-06-10T11:19:40;7.13;;;4.90;;
50900;SDS011;36879;51.416;6.678;2023-06-10T11:22:15;9.15;;;5.07;;
50900;SDS011;36879;51.416;6.678;2023-06-10T11:24:41;10.82;;;5.00;;
50900;SDS011;36879;51.416;6.678;2023-06-10T11:27:14;10.57;;;5.60;;
50900;SDS011;36879;51.416;6.678;2023-06-10T11:29:54;14.57;;;4.77;;
50900;SDS011;36879;51.416;6.678;2023-06-10T11:32:20;6.88;;;4.65;;
50900;SDS011;36879;51.416;6.678;2023-06-10T11:37:21;11.07;;;4.75;;
50900;SDS011;36879;51.416;6.678;2023-06-10T11:39:47;10.93;;;4.75;;
50900;SDS011;36879;51.416;6.678;2023-06-10T11:42:13;8.65;;;5.20;;
50900;SDS011;36879;51.416;6.678;2023-06-10T11:44:47;10.95;;;5.80;;
50900;SDS011;36879;51.416;6.678;2023-06-10T11:47:13;6.05;;;4.70;;
50900;SDS011;36879;51.416;6.678;2023-06-10T11:49:39;7.03;;;5.03;;
50900;SDS011;36879;51.416;6.678;2023-06-10T11:52:05;12.85;;;5.65;;
50900;SDS011;36879;51.416;6.678;2023-06-10T11:54:31;9.60;;;5.50;;
50900;SDS011;36879;51.416;6.678;2023-06-10T11:56:57;10.93;;;5.13;;
50900;SDS011;36879;51.416;6.678;2023-06-10T11:59:26;13.15;;;5.25;;
50900;SDS011;36879;51.416;6.678;2023-06-10T12:01:53;8.32;;;5.10;;
50900;SDS011;36879;51.416;6.678;2023-06-10T12:04:19;9.73;;;4.70;;
50900;SDS011;36879;51.416;6.678;2023-06-10T12:06:47;8.15;;;4.63;;
50900;SDS011;36879;51.416;6.678;2023-06-10T12:09:24;8.98;;;5.15;;
50900;SDS011;36879;51.416;6.678;2023-06-10T12:11:57;9.15;;;5.15;;
50900;SDS011;36879;51.416;6.678;2023-06-10T12:20:02;8.70;;;4.93;;
50900;SDS011;36879;51.416;6.678;2023-06-10T12:22:35;5.20;;;4.70;;
50900;SDS011;36879;51.416;6.678;2023-06-10T12:25:02;17.95;;;4.85;;
50900;SDS011;36879;51.416;6.678;2023-06-10T12:27:29;26.20;;;6.35;;
50900;SDS011;36879;51.416;6.678;2023-06-10T12:29:57;15.10;;;6.07;;
50900;SDS011;36879;51.416;6.678;2023-06-10T12:35:06;13.63;;;5.50;;
50900;SDS011;36879;51.416;6.678;2023-06-10T12:37:32;13.73;;;5.00;;
50900;SDS011;36879;51.416;6.678;2023-06-10T12:40:04;8.45;;;4.90;;
50900;SDS011;36879;51.416;6.678;2023-06-10T12:42:37;16.33;;;6.47;;
50900;SDS011;36879;51.416;6.678;2023-06-10T12:45:03;15.38;;;5.75;;
50900;SDS011;36879;51.416;6.678;2023-06-10T12:47:31;16.63;;;5.68;;
50900;SDS011;36879;51.416;6.678;2023-06-10T12:49:59;10.73;;;5.43;;
50900;SDS011;36879;51.416;6.678;2023-06-10T12:52:25;7.10;;;4.95;;
50900;SDS011;36879;51.416;6.678;2023-06-10T12:54:51;6.03;;;4.60;;
50900;SDS011;36879;51.416;6.678;2023-06-10T12:57:17;6.32;;;4.93;;
50900;SDS011;36879;51.416;6.678;2023-06-10T12:59:43;7.53;;;5.07;;
50900;SDS011;36879;51.416;6.678;2023-06-10T13:02:15;7.15;;;4.88;;
50900;SDS011;36879;51.416;6.678;2023-06-10T13:04:45;5.82;;;4.60;;
50900;SDS011;36879;51.416;6.678;2023-06-10T13:07:11;5.68;;;5.00;;
50900;SDS011;36879;51.416;6.678;2023-06-10T13:09:37;7.70;;;4.93;;
50900;SDS011;36879;51.416;6.678;2023-06-10T13:12:03;6.28;;;4.70;;
50900;SDS011;36879;51.416;6.678;2023-06-10T13:14:29;9.02;;;4.90;;
50900;SDS011;36879;51.416;6.678;2023-06-10T13:16:55;9.23;;;4.78;;
50900;SDS011;36879;51.416;6.678;2023-06-10T13:19:21;7.07;;;5.25;;
50900;SDS011;36879;51.416;6.678;2023-06-10T13:21:48;6.55;;;5.25;;
50900;SDS011;36879;51.416;6.678;2023-06-10T13:24:14;6.88;;;4.40;;
50900;SDS011;36879;51.416;6.678;2023-06-10T13:26:40;6.35;;;5.13;;
50900;SDS011;36879;51.416;6.678;2023-06-10T13:29:06;6.63;;;4.70;;
50900;SDS011;36879;51.416;6.678;2023-06-10T13:31:33;5.75;;;4.63;;
50900;SDS011;36879;51.416;6.678;2023-06-10T13:33:59;7.82;;;5.70;;
50900;SDS011;36879;51.416;6.678;2023-06-10T13:36:25;7.07;;;5.57;;
50900;SDS011;36879;51.416;6.678;2023-06-10T13:38:51;6.65;;;4.97;;
50900;SDS011;36879;51.416;6.678;2023-06-10T13:41:17;4.93;;;4.22;;
50900;SDS011;36879;51.416;6.678;2023-06-10T13:43:43;8.20;;;4.95;;
50900;SDS011;36879;51.416;6.678;2023-06-10T13:46:09;7.93;;;5.35;;
50900;SDS011;36879;51.416;6.678;2023-06-10T13:48:35;5.22;;;4.72;;
50900;SDS011;36879;51.416;6.678;2023-06-10T13:51:01;8.90;;;5.30;;
50900;SDS011;36879;51.416;6.678;2023-06-10T13:53:27;8.20;;;5.53;;
50900;SDS011;36879;51.416;6.678;2023-06-10T13:55:53;6.25;;;5.20;;
50900;SDS011;36879;51.416;6.678;2023-06-10T13:58:19;6.13;;;5.18;;
50900;SDS011;36879;51.416;6.678;2023-06-10T14:00:45;6.03;;;5.43;;
50900;SDS011;36879;51.416;6.678;2023-06-10T14:03:12;5.85;;;4.57;;
50900;SDS011;36879;51.416;6.678;2023-06-10T14:05:38;7.30;;;5.00;;
50900;SDS011;36879;51.416;6.678;2023-06-10T14:08:04;6.22;;;5.13;;
50900;SDS011;36879;51.416;6.678;2023-06-10T14:10:31;6.57;;;5.40;;
50900;SDS011;36879;51.416;6.678;2023-06-10T14:12:57;11.00;;;5.32;;
50900;SDS011;36879;51.416;6.678;2023-06-10T14:15:23;7.57;;;4.47;;
50900;SDS011;36879;51.416;6.678;2023-06-10T14:17:49;7.57;;;5.00;;
50900;SDS011;36879;51.416;6.678;2023-06-10T14:20:15;7.43;;;5.40;;
50900;SDS011;36879;51.416;6.678;2023-06-10T14:22:41;5.32;;;4.78;;
50900;SDS011;36879;51.416;6.678;2023-06-10T14:25:07;6.13;;;4.75;;
50900;SDS011;36879;51.416;6.678;2023-06-10T14:27:33;7.18;;;4.95;;
50900;SDS011;36879;51.416;6.678;2023-06-10T14:29:59;6.55;;;4.70;;
50900;SDS011;36879;51.416;6.678;2023-06-10T14:32:25;5.68;;;5.00;;
50900;SDS011;36879;51.416;6.678;2023-06-10T14:34:51;7.82;;;5.10;;
50900;SDS011;36879;51.416;6.678;2023-06-10T14:37:17;6.78;;;4.95;;
50900;SDS011;36879;51.416;6.678;2023-06-10T14:39:43;7.15;;;5.60;;
50900;SDS011;36879;51.416;6.678;2023-06-10T14:42:09;6.93;;;5.38;;
50900;SDS011;36879;51.416;6.678;2023-06-10T14:44:35;7.13;;;6.03;;
50900;SDS011;36879;51.416;6.678;2023-06-10T14:47:01;8.73;;;5.25;;
50900;SDS011;36879;51.416;6.678;2023-06-10T14:49:27;7.55;;;5.60;;
50900;SDS011;36879;51.416;6.678;2023-06-10T14:51:53;7.55;;;5.30;;
50900;SDS011;36879;51.416;6.678;2023-06-10T14:54:19;6.68;;;5.20;;
50900;SDS011;36879;51.416;6.678;2023-06-10T14:56:45;7.95;;;5.80;;
50900;SDS011;36879;51.416;6.678;2023-06-10T14:59:11;7.10;;;5.28;;
50900;SDS011;36879;51.416;6.678;2023-06-10T15:01:37;8.45;;;6.82;;
50900;SDS011;36879;51.416;6.678;2023-06-10T15:04:03;6.20;;;4.88;;
50900;SDS011;36879;51.416;6.678;2023-06-10T15:06:29;7.28;;;5.18;;
50900;SDS011;36879;51.416;6.678;2023-06-10T15:08:55;6.85;;;5.63;;
50900;SDS011;36879;51.416;6.678;2023-06-10T15:11:21;6.10;;;5.43;;
50900;SDS011;36879;51.416;6.678;2023-06-10T15:13:47;5.53;;;5.00;;
50900;SDS011;36879;51.416;6.678;2023-06-10T15:16:13;7.03;;;4.65;;
50900;SDS011;36879;51.416;6.678;2023-06-10T15:18:40;7.60;;;5.10;;
50900;SDS011;36879;51.416;6.678;2023-06-10T15:21:06;7.80;;;5.35;;
50900;SDS011;36879;51.416;6.678;2023-06-10T15:23:32;6.50;;;5.20;;
50900;SDS011;36879;51.416;6.678;2023-06-10T15:25:58;7.78;;;4.95;;
50900;SDS011;36879;51.416;6.678;2023-06-10T15:28:23;7.38;;;5.43;;
50900;SDS011;36879;51.416;6.678;2023-06-10T15:30:50;6.20;;;5.35;;
50900;SDS011;36879;51.416;6.678;2023-06-10T15:33:16;6.00;;;4.72;;
50900;SDS011;36879;51.416;6.678;2023-06-10T15:35:42;7.93;;;5.40;;
50900;SDS011;36879;51.416;6.678;2023-06-10T15:38:08;6.15;;;5.20;;
50900;SDS011;36879;51.416;6.678;2023-06-10T15:40:34;6.10;;;5.13;;
50900;SDS011;36879;51.416;6.678;2023-06-10T15:43:00;7.28;;;5.10;;
50900;SDS011;36879;51.416;6.678;2023-06-10T15:45:26;8.30;;;5.25;;
50900;SDS011;36879;51.416;6.678;2023-06-10T15:47:52;6.97;;;5.30;;
50900;SDS011;36879;51.416;6.678;2023-06-10T15:50:18;8.50;;;4.90;;
50900;SDS011;36879;51.416;6.678;2023-06-10T15:52:44;5.80;;;4.53;;
50900;SDS011;36879;51.416;6.678;2023-06-10T15:55:10;7.20;;;4.45;;
50900;SDS011;36879;51.416;6.678;2023-06-10T15:57:36;7.65;;;5.72;;
50900;SDS011;36879;51.416;6.678;2023-06-10T16:00:03;5.00;;;4.43;;
50900;SDS011;36879;51.416;6.678;2023-06-10T16:02:29;9.82;;;5.60;;
50900;SDS011;36879;51.416;6.678;2023-06-10T16:04:55;7.72;;;5.22;;
50900;SDS011;36879;51.416;6.678;2023-06-10T16:07:21;6.30;;;5.03;;
50900;SDS011;36879;51.416;6.678;2023-06-10T16:09:47;8.30;;;5.25;;
50900;SDS011;36879;51.416;6.678;2023-06-10T16:12:13;8.20;;;6.10;;
50900;SDS011;36879;51.416;6.678;2023-06-10T16:14:39;10.48;;;5.30;;
50900;SDS011;36879;51.416;6.678;2023-06-10T16:17:05;6.45;;;5.32;;
50900;SDS011;36879;51.416;6.678;2023-06-10T16:19:31;7.53;;;4.88;;
50900;SDS011;36879;51.416;6.678;2023-06-10T16:21:57;9.00;;;5.53;;
50900;SDS011;36879;51.416;6.678;2023-06-10T16:24:23;7.93;;;5.75;;
50900;SDS011;36879;51.416;6.678;2023-06-10T16:26:49;6.32;;;5.10;;
50900;SDS011;36879;51.416;6.678;2023-06-10T16:29:15;6.28;;;5.25;;
50900;SDS011;36879;51.416;6.678;2023-06-10T16:31:41;6.93;;;4.70;;
50900;SDS011;36879;51.416;6.678;2023-06-10T16:34:07;6.40;;;4.70;;
50900;SDS011;36879;51.416;6.678;2023-06-10T16:36:33;6.88;;;5.50;;
50900;SDS011;36879;51.416;6.678;2023-06-10T16:38:59;8.70;;;4.80;;
50900;SDS011;36879;51.416;6.678;2023-06-10T16:41:25;5.97;;;4.82;;
50900;SDS011;36879;51.416;6.678;2023-06-10T16:43:51;7.45;;;4.60;;
50900;SDS011;36879;51.416;6.678;2023-06-10T16:46:17;6.05;;;4.43;;
50900;SDS011;36879;51.416;6.678;2023-06-10T16:48:44;5.53;;;4.82;;
50900;SDS011;36879;51.416;6.678;2023-06-10T16:51:10;6.22;;;5.20;;
50900;SDS011;36879;51.416;6.678;2023-06-10T16:53:36;6.25;;;4.90;;
50900;SDS011;36879;51.416;6.678;2023-06-10T16:56:02;10.23;;;5.30;;
50900;SDS011;36879;51.416;6.678;2023-06-10T16:58:28;7.15;;;5.05;;
50900;SDS011;36879;51.416;6.678;2023-06-10T17:00:55;6.82;;;4.90;;
50900;SDS011;36879;51.416;6.678;2023-06-10T17:03:22;6.55;;;5.10;;
50900;SDS011;36879;51.416;6.678;2023-06-10T17:05:48;7.03;;;5.18;;
50900;SDS011;36879;51.416;6.678;2023-06-10T17:08:14;9.43;;;4.68;;
50900;SDS011;36879;51.416;6.678;2023-06-10T17:10:40;6.40;;;4.68;;
50900;SDS011;36879;51.416;6.678;2023-06-10T17:13:07;7.57;;;5.15;;
50900;SDS011;36879;51.416;6.678;2023-06-10T17:15:34;6.18;;;4.97;;
50900;SDS011;36879;51.416;6.678;2023-06-10T17:18:00;5.80;;;4.88;;
50900;SDS011;36879;51.416;6.678;2023-06-10T17:20:26;7.38;;;5.43;;
50900;SDS011;36879;51.416;6.678;2023-06-10T17:22:54;6.50;;;5.63;;
50900;SDS011;36879;51.416;6.678;2023-06-10T17:25:20;7.60;;;4.90;;
50900;SDS011;36879;51.416;6.678;2023-06-10T17:27:46;7.88;;;5.40;;
50900;SDS011;36879;51.416;6.678;2023-06-10T17:30:13;7.35;;;4.80;;
50900;SDS011;36879;51.416;6.678;2023-06-10T17:32:39;6.78;;;4.80;;
50900;SDS011;36879;51.416;6.678;2023-06-10T17:35:05;6.50;;;5.03;;
50900;SDS011;36879;51.416;6.678;2023-06-10T17:39:57;6.32;;;4.72;;
